»·PEaware :: N814LW KSBA-KTOA

N814LW :: KSBA-KTOA

FLIGHT INFORMATION

Flight Status: Arrived
Operator: Privately registered:
United States
More flights under this callsign
Pilot: Alan M. (596)
Aircraft: BEECH AIRCRAFT DEBONAIR BONANZA
(BE33)
More flights by this aircraft type
Origin: KSBA Santa Barbara Mun
United States
Destination: KTOA Zamperini
United States
More flights between these airports :: More routes between these airports
Route: +KWANG CMA VNY V186 ADAMM V394 SLI
File this flight plan on PilotEdge
Remarks:
Altitude:
(Current/Filed)
7,000ft
Speed:
(Current/Filed)
165kts
Departed: 28-Nov-17 04:22 PM
Arrived: 28-Nov-17 05:18 PM
Distance/Time
Traveled:
84nm/0:55
Distance/Time
To Go:
Arrived

Flight Plot

Page will automatically refresh every two minutes.


Map Options




Map Legend


Flown Route
Filed Route
Departure Airport
Arrival Airport
Navaid (VOR, NDB)
Fix

Horizontal Profiles

Position Reports

Time Latitude Longitude Heading Altitude Ground
Speed
28-Nov-17 16:11 34.429382 -119.844772 147 17ft 0kts
28-Nov-17 16:12 34.429382 -119.844772 147 17ft 0kts
28-Nov-17 16:13 34.429382 -119.844772 147 17ft 0kts
28-Nov-17 16:14 34.429382 -119.844772 147 17ft 0kts
28-Nov-17 16:15 34.429382 -119.844772 147 17ft 0kts
28-Nov-17 16:16 34.429382 -119.844772 147 17ft 0kts
28-Nov-17 16:17 34.429382 -119.844772 147 17ft 0kts
28-Nov-17 16:18 34.429382 -119.844772 147 17ft 0kts
28-Nov-17 16:19 34.429382 -119.844772 147 17ft 0kts
28-Nov-17 16:20 34.429382 -119.844772 147 17ft 0kts
28-Nov-17 16:21 34.429382 -119.844772 147 17ft 0kts
28-Nov-17 16:22 34.429382 -119.844772 147 17ft 0kts
28-Nov-17 16:23 34.429360 -119.844755 146 17ft 2kts
28-Nov-17 16:24 34.429318 -119.843620 57 17ft 3kts
28-Nov-17 16:25 34.429795 -119.842651 57 16ft 3kts
28-Nov-17 16:26 34.430090 -119.842055 71 17ft 0kts
28-Nov-17 16:27 34.419104 -119.838115 167 243ft 98kts
28-Nov-17 16:28 34.395402 -119.831882 164 1609ft 98kts
28-Nov-17 16:29 34.364715 -119.822811 167 2650ft 126kts
28-Nov-17 16:30 34.325695 -119.809469 135 2962ft 170kts
28-Nov-17 16:31 34.317618 -119.755945 91 3587ft 160kts
28-Nov-17 16:32 34.315876 -119.704217 91 4374ft 149kts
28-Nov-17 16:33 34.314133 -119.654565 92 4960ft 156kts
28-Nov-17 16:34 34.311981 -119.600889 92 4964ft 174kts
28-Nov-17 16:35 34.309867 -119.542416 91 4963ft 176kts
28-Nov-17 16:36 34.306833 -119.483650 98 4962ft 177kts
28-Nov-17 16:37 34.299168 -119.426158 99 4961ft 177kts
28-Nov-17 16:38 34.289171 -119.368237 106 4962ft 177kts
28-Nov-17 16:39 34.275369 -119.311440 106 4962ft 177kts
28-Nov-17 16:40 34.261641 -119.254924 106 4962ft 177kts
28-Nov-17 16:41 34.247944 -119.198494 106 4967ft 177kts
28-Nov-17 16:42 34.234467 -119.142863 106 4970ft 177kts
28-Nov-17 16:43 34.214288 -119.089712 120 4969ft 177kts
28-Nov-17 16:44 34.205315 -119.031943 88 4970ft 177kts
28-Nov-17 16:45 34.208905 -118.973809 86 4970ft 177kts
28-Nov-17 16:46 34.211633 -118.914839 86 4970ft 177kts
28-Nov-17 16:47 34.214419 -118.855808 86 4982ft 177kts
28-Nov-17 16:48 34.217189 -118.797375 86 4982ft 177kts
28-Nov-17 16:49 34.220000 -118.738614 86 4982ft 177kts
28-Nov-17 16:50 34.222847 -118.679778 86 4982ft 177kts
28-Nov-17 16:51 34.225245 -118.620595 88 4982ft 177kts
28-Nov-17 16:52 34.225699 -118.561387 89 4982ft 177kts
28-Nov-17 16:53 34.225244 -118.501921 89 4982ft 177kts
28-Nov-17 16:54 34.211677 -118.445385 108 4982ft 177kts
28-Nov-17 16:55 34.197049 -118.395266 109 4982ft 177kts
28-Nov-17 16:56 34.180685 -118.339098 109 4982ft 177kts
28-Nov-17 16:57 34.165790 -118.287869 109 4982ft 177kts
28-Nov-17 16:58 34.149488 -118.231682 109 4982ft 177kts
28-Nov-17 16:59 34.133257 -118.175609 109 4987ft 177kts
28-Nov-17 17:00 34.117053 -118.119432 108 4991ft 177kts
28-Nov-17 17:01 34.100878 -118.063279 108 4991ft 177kts
28-Nov-17 17:02 34.084726 -118.007093 108 4991ft 177kts
28-Nov-17 17:03 34.068625 -117.950953 108 4991ft 177kts
28-Nov-17 17:04 34.050975 -117.897377 115 4991ft 177kts
28-Nov-17 17:05 34.029992 -117.845570 115 4991ft 177kts
28-Nov-17 17:06 33.993178 -117.831258 200 4991ft 177kts
28-Nov-17 17:07 33.947509 -117.852427 200 4991ft 177kts
28-Nov-17 17:08 33.901576 -117.873682 200 4991ft 177kts
28-Nov-17 17:09 33.855772 -117.894857 200 4991ft 177kts
28-Nov-17 17:10 33.816097 -117.926581 247 4982ft 177kts
28-Nov-17 17:11 33.799066 -117.982043 248 4991ft 177kts
28-Nov-17 17:12 33.784420 -118.037749 252 4977ft 178kts
28-Nov-17 17:13 33.772109 -118.088771 252 4326ft 134kts
28-Nov-17 17:14 33.745673 -118.112714 203 3516ft 122kts
28-Nov-17 17:15 33.714689 -118.129183 203 2720ft 123kts
28-Nov-17 17:16 33.705962 -118.155175 273 2104ft 123kts
28-Nov-17 17:17 33.708020 -118.185542 285 1990ft 117kts
28-Nov-17 17:18 33.724380 -118.219285 306 1991ft 118kts
28-Nov-17 17:19 33.744716 -118.250345 308 1991ft 118kts
28-Nov-17 17:20 33.761027 -118.274966 308 1505ft 85kts
28-Nov-17 17:21 33.776089 -118.297509 308 1002ft 89kts
28-Nov-17 17:22 33.791013 -118.320115 307 474ft 79kts
28-Nov-17 17:23 33.802835 -118.337805 307 107ft 35kts
28-Nov-17 17:24 33.800753 -118.336026 154 107ft 0kts

Navigation Log

Ident Type
Flight plan parsing failed, navigation log unavailable